Time;durP1;ratioP1;P1;durP2;ratioP2;P2;SDS_P1;SDS_P2;PMS_P1;PMS_P2;Temp;Humidity;BMP_temperature;BMP_pressure;BME280_temperature;BME280_humidity;BME280_pressure;Samples;Min_cycle;Max_cycle;Signal;HPM_P1;HPM_P2
2022/10/14 00:00:07;;;;;;;107.93;26.10;;;;;12.80;96476.00;;;;8395527;28;20227;-74
2022/10/14 00:04:10;;;;;;;169.55;28.25;;;;;12.80;96475.00;;;;8394412;28;20220;-73
2022/10/14 00:08:14;;;;;;;369.40;36.47;;;;;12.60;96471.00;;;;8394854;28;20550;-72
2022/10/14 00:12:49;;;;;;;403.55;37.60;;;;;12.50;96486.00;;;;8394435;28;20229;-73
2022/10/14 00:16:53;;;;;;;170.45;29.98;;;;;12.50;96473.00;;;;8394730;28;20558;-72
2022/10/14 00:21:27;;;;;;;260.92;35.15;;;;;12.60;96488.00;;;;8392472;28;20233;-73
2022/10/14 00:25:32;;;;;;;138.95;27.58;;;;;12.60;96480.00;;;;8394788;28;20260;-72
2022/10/14 00:29:35;;;;;;;101.93;26.13;;;;;12.50;96487.00;;;;8393900;28;20554;-72
2022/10/14 00:33:38;;;;;;;101.78;24.83;;;;;12.50;96480.00;;;;8394450;28;20269;-72
2022/10/14 00:38:12;;;;;;;217.43;31.70;;;;;12.50;96484.00;;;;8393003;28;20224;-73
2022/10/14 00:42:16;;;;;;;244.02;31.73;;;;;12.50;96483.00;;;;8393514;28;20227;-72
2022/10/14 00:46:20;;;;;;;345.27;37.25;;;;;12.50;96479.00;;;;8393378;28;20230;-73
2022/10/14 00:50:23;;;;;;;537.50;43.25;;;;;12.60;96473.00;;;;8393499;28;20234;-73
2022/10/14 00:54:32;;;;;;;594.17;45.47;;;;;12.60;96491.00;;;;8393542;28;20271;-73
2022/10/14 00:58:37;;;;;;;534.22;43.22;;;;;12.70;96488.00;;;;8394397;28;20222;-73
2022/10/14 01:03:11;;;;;;;554.67;42.30;;;;;12.70;96488.00;;;;8393491;28;20222;-72
2022/10/14 01:07:27;;;;;;;522.65;45.33;;;;;12.70;96497.00;;;;8393123;28;20217;-74
2022/10/14 01:11:39;;;;;;;377.20;35.40;;;;;12.70;96484.00;;;;8393564;28;20234;-73
2022/10/14 01:16:13;;;;;;;595.22;42.80;;;;;12.70;96490.00;;;;8393397;28;20253;-74
2022/10/14 01:20:44;;;;;;;574.10;41.92;;;;;12.70;96492.00;;;;8393223;28;20216;-73
2022/10/14 01:25:02;;;;;;;741.97;51.22;;;;;12.80;96485.00;;;;8385659;28;20261;-73
2022/10/14 01:29:21;;;;;;;622.45;43.88;;;;;12.80;96476.00;;;;8394063;28;20618;-73
2022/10/14 01:33:45;;;;;;;844.70;55.67;;;;;12.80;96473.00;;;;8397474;28;20224;-73
2022/10/14 01:37:55;;;;;;;700.85;47.28;;;;;12.80;96471.00;;;;8400465;28;20219;-74
2022/10/14 01:42:03;;;;;;;666.55;46.25;;;;;12.80;96464.00;;;;8399530;28;20223;-74
2022/10/14 01:51:11;;;;;;;881.95;54.58;;;;;12.70;96457.00;;;;8399049;28;20254;-73
2022/10/14 01:55:19;;;;;;;864.35;52.88;;;;;12.80;96464.00;;;;8399203;28;20235;-73
2022/10/14 01:59:23;;;;;;;813.90;54.75;;;;;12.80;96454.00;;;;8398665;28;20225;-73
2022/10/14 02:03:58;;;;;;;767.17;49.83;;;;;12.70;96451.00;;;;8399724;28;20230;-73
2022/10/14 02:08:15;;;;;;;833.28;52.17;;;;;12.70;96461.00;;;;8398893;28;20227;-73
2022/10/14 02:12:28;;;;;;;931.25;54.70;;;;;12.60;96456.00;;;;8398825;28;20278;-73
2022/10/14 02:16:59;;;;;;;792.65;53.65;;;;;12.60;96461.00;;;;8399175;28;20576;-73
2022/10/14 02:21:09;;;;;;;318.40;32.00;;;;;12.60;96461.00;;;;8398378;28;20637;-73
2022/10/14 02:25:18;;;;;;;611.47;44.58;;;;;12.60;96465.00;;;;8398580;28;20232;-73
2022/10/14 02:29:23;;;;;;;748.92;50.85;;;;;12.60;96462.00;;;;8398310;28;20215;-73
2022/10/14 02:33:58;;;;;;;665.00;47.47;;;;;12.60;96461.00;;;;8397635;28;20249;-73
2022/10/14 02:38:02;;;;;;;356.08;36.20;;;;;12.60;96456.00;;;;8398465;28;20219;-74
2022/10/14 02:42:07;;;;;;;873.08;52.60;;;;;12.60;96448.00;;;;8397080;28;20546;-74
2022/10/14 02:46:10;;;;;;;769.85;51.20;;;;;12.60;96451.00;;;;8398175;28;20224;-75
2022/10/14 02:50:45;;;;;;;697.20;49.00;;;;;12.60;96456.00;;;;8396902;28;20326;-74
2022/10/14 02:54:48;;;;;;;655.33;45.05;;;;;12.60;96450.00;;;;8396980;28;20660;-75
2022/10/14 02:59:24;;;;;;;1140.78;61.30;;;;;12.60;96449.00;;;;8396805;28;20665;-77
2022/10/14 03:03:58;;;;;;;861.28;49.42;;;;;12.60;96444.00;;;;8397049;28;20719;-74
2022/10/14 03:08:01;;;;;;;961.80;55.55;;;;;12.60;96456.00;;;;8397316;28;20223;-74
2022/10/14 03:12:38;;;;;;;897.00;55.60;;;;;12.50;96445.00;;;;8396629;28;20226;-74
2022/10/14 03:17:16;;;;;;;720.72;48.70;;;;;12.50;96441.00;;;;8397139;28;20216;-76
2022/10/14 03:21:50;;;;;;;809.30;55.60;;;;;12.50;96433.00;;;;8396218;28;20215;-74
2022/10/14 03:26:27;;;;;;;844.08;55.75;;;;;12.50;96435.00;;;;8396264;28;20252;-74
2022/10/14 03:30:30;;;;;;;645.22;45.35;;;;;12.40;96444.00;;;;8395965;28;20227;-75
2022/10/14 03:35:09;;;;;;;495.17;38.53;;;;;12.40;96432.00;;;;8396492;28;20675;-75
2022/10/14 03:39:43;;;;;;;352.50;34.28;;;;;12.30;96431.00;;;;8395393;28;20220;-75
2022/10/14 03:43:48;;;;;;;665.03;40.50;;;;;12.30;96434.00;;;;8396044;28;20292;-74
2022/10/14 03:48:24;;;;;;;750.90;42.78;;;;;12.20;96425.00;;;;8393997;28;20222;-75
2022/10/14 03:53:02;;;;;;;732.00;47.35;;;;;12.20;96430.00;;;;8395269;28;20649;-73
2022/10/14 03:57:37;;;;;;;675.33;43.40;;;;;12.20;96429.00;;;;8393871;28;20624;-74
2022/10/14 04:02:14;;;;;;;683.97;46.00;;;;;12.20;96415.00;;;;8395536;28;20257;-73
2022/10/14 04:06:50;;;;;;;445.92;33.97;;;;;12.20;96420.00;;;;8375284;28;20221;-72
2022/10/14 04:11:27;;;;;;;770.33;52.13;;;;;12.20;96411.00;;;;8392145;28;20217;-73
2022/10/14 04:16:06;;;;;;;711.88;44.38;;;;;12.20;96408.00;;;;8393912;28;20219;-74
2022/10/14 04:20:40;;;;;;;923.70;51.25;;;;;12.20;96405.00;;;;8394829;28;20231;-74
2022/10/14 04:25:17;;;;;;;821.30;49.55;;;;;12.30;96411.00;;;;8393643;28;20223;-73
2022/10/14 04:29:54;;;;;;;667.20;44.67;;;;;12.30;96410.00;;;;8394117;28;20265;-74
2022/10/14 04:34:32;;;;;;;792.40;47.90;;;;;12.30;96413.00;;;;8393697;28;20220;-75
2022/10/14 04:39:06;;;;;;;471.13;36.60;;;;;12.40;96410.00;;;;8392707;28;20221;-75
2022/10/14 04:43:43;;;;;;;888.40;53.58;;;;;12.40;96409.00;;;;8388423;28;20225;-73
2022/10/14 04:48:20;;;;;;;721.63;48.17;;;;;12.50;96409.00;;;;8394298;28;20223;-74
2022/10/14 04:52:58;;;;;;;747.92;47.75;;;;;12.50;96402.00;;;;8393671;28;20215;-75
2022/10/14 04:57:32;;;;;;;690.33;44.17;;;;;12.50;96397.00;;;;8394008;28;20706;-74
2022/10/14 05:02:09;;;;;;;594.13;39.10;;;;;12.60;96397.00;;;;8393207;28;20317;-73
2022/10/14 05:06:46;;;;;;;748.40;45.47;;;;;12.60;96393.00;;;;8392929;28;20219;-74
2022/10/14 05:11:24;;;;;;;451.42;36.67;;;;;12.60;96389.00;;;;8392735;28;20211;-73
2022/10/14 05:15:51;;;;;;;1008.55;54.88;;;;;12.60;96389.00;;;;8393059;28;20229;-74
2022/10/14 05:20:27;;;;;;;750.03;47.35;;;;;12.70;96389.00;;;;8381508;28;20222;-74
2022/10/14 05:25:04;;;;;;;681.28;47.17;;;;;12.70;96379.00;;;;8393076;28;20233;-73
2022/10/14 05:29:42;;;;;;;518.63;41.53;;;;;12.70;96379.00;;;;8391108;28;20261;-73
2022/10/14 05:34:16;;;;;;;546.22;39.33;;;;;12.70;96396.00;;;;8393137;28;20545;-73
2022/10/14 05:38:19;;;;;;;630.15;41.75;;;;;12.70;96389.00;;;;8392910;28;20223;-73
2022/10/14 05:42:56;;;;;;;483.67;38.15;;;;;12.80;96389.00;;;;8392020;28;20534;-73
2022/10/14 05:52:31;;;;;;;374.33;34.95;;;;;12.80;96399.00;;;;8391765;28;20225;-75
2022/10/14 05:56:37;;;;;;;515.28;40.65;;;;;12.80;96408.00;;;;8390836;28;20542;-73
2022/10/14 06:01:11;;;;;;;726.60;48.35;;;;;12.80;96404.00;;;;8392574;28;20227;-73
2022/10/14 06:05:48;;;;;;;655.78;44.45;;;;;12.80;96409.00;;;;8386062;28;20219;-73
2022/10/14 06:10:26;;;;;;;482.08;40.40;;;;;12.90;96400.00;;;;8389234;28;20612;-73
2022/10/14 06:15:04;;;;;;;765.35;50.53;;;;;13.00;96402.00;;;;8388577;28;20265;-73
2022/10/14 06:19:39;;;;;;;418.10;37.88;;;;;13.10;96391.00;;;;8394506;28;20230;-75
2022/10/14 06:24:16;;;;;;;503.73;40.05;;;;;13.10;96409.00;;;;8397658;28;20224;-75
2022/10/14 06:28:53;;;;;;;696.95;46.85;;;;;13.10;96411.00;;;;8396360;28;20521;-74
2022/10/14 06:33:29;;;;;;;522.22;43.17;;;;;13.20;96411.00;;;;8395204;28;20609;-76
2022/10/14 06:38:03;;;;;;;294.67;36.15;;;;;13.30;96418.00;;;;8396527;28;20226;-75
2022/10/14 06:42:41;;;;;;;209.63;33.50;;;;;13.40;96417.00;;;;8394255;28;20223;-74
2022/10/14 06:47:18;;;;;;;264.30;37.78;;;;;13.50;96419.00;;;;8394893;28;20633;-75
2022/10/14 06:57:02;;;;;;;166.77;32.28;;;;;13.60;96416.00;;;;8392949;28;20234;-75
2022/10/14 07:01:35;;;;;;;183.68;32.95;;;;;13.70;96416.00;;;;8392418;28;20639;-75
2022/10/14 07:06:12;;;;;;;160.82;31.00;;;;;13.80;96412.00;;;;8383359;28;20223;-76
2022/10/14 07:10:50;;;;;;;169.05;33.50;;;;;13.90;96406.00;;;;8393947;28;23178;-75
2022/10/14 07:14:57;;;;;;;170.23;31.30;;;;;14.00;96415.00;;;;8394131;28;20229;-75
2022/10/14 07:19:35;;;;;;;159.68;31.23;;;;;14.00;96404.00;;;;8394604;28;20223;-74
2022/10/14 07:24:13;;;;;;;168.23;33.35;;;;;14.10;96403.00;;;;8387786;28;20219;-75
2022/10/14 07:28:50;;;;;;;156.95;32.95;;;;;14.30;96405.00;;;;8394165;28;20220;-73
2022/10/14 07:33:29;;;;;;;150.82;33.25;;;;;14.40;96400.00;;;;8391146;28;20321;-74
2022/10/14 07:38:02;;;;;;;174.93;32.33;;;;;14.50;96405.00;;;;8391428;28;20228;-77
2022/10/14 07:42:39;;;;;;;180.35;33.38;;;;;14.60;96409.00;;;;8393116;28;20223;-76
2022/10/14 07:47:16;;;;;;;185.57;34.55;;;;;14.70;96408.00;;;;8393853;28;20223;-76
2022/10/14 07:56:53;;;;;;;165.95;32.67;;;;;15.10;96408.00;;;;8394773;28;20307;-77
2022/10/14 08:01:26;;;;;;;127.20;30.88;;;;;15.30;96421.00;;;;8392863;28;20219;-78
2022/10/14 08:06:03;;;;;;;153.98;31.95;;;;;15.40;96422.00;;;;8393707;28;20262;-78
2022/10/14 08:10:41;;;;;;;134.90;30.95;;;;;15.50;96421.00;;;;8393185;28;20258;-78
2022/10/14 08:15:19;;;;;;;150.93;32.03;;;;;15.50;96418.00;;;;8392096;28;20316;-73
2022/10/14 08:19:22;;;;;;;130.90;30.77;;;;;15.70;96414.00;;;;8393059;28;20269;-73
2022/10/14 08:23:57;;;;;;;133.38;29.63;;;;;15.80;96414.00;;;;8391685;28;20330;-75
2022/10/14 08:28:34;;;;;;;135.77;31.50;;;;;16.00;96414.00;;;;8391923;28;20211;-75
2022/10/14 08:33:12;;;;;;;118.63;28.35;;;;;16.20;96411.00;;;;8393196;28;20261;-74
2022/10/14 08:37:16;;;;;;;132.23;31.10;;;;;16.40;96417.00;;;;8391393;28;20569;-75
2022/10/14 08:42:02;;;;;;;102.32;27.10;;;;;16.50;96412.00;;;;8391150;28;20611;-79
2022/10/14 08:46:30;;;;;;;99.32;26.20;;;;;16.50;96416.00;;;;8392269;28;20703;-76
2022/10/14 08:51:06;;;;;;;99.47;25.70;;;;;16.60;96408.00;;;;8389005;28;20215;-76
2022/10/14 08:55:46;;;;;;;99.75;25.90;;;;;16.70;96413.00;;;;8384390;28;20223;-75
2022/10/14 09:00:21;;;;;;;96.78;25.73;;;;;17.00;96408.00;;;;8382587;28;20216;-75
2022/10/14 09:04:55;;;;;;;100.10;25.98;;;;;17.20;96412.00;;;;8390125;28;20630;-75
2022/10/14 09:09:37;;;;;;;92.88;25.40;;;;;17.40;96410.00;;;;8386362;28;20219;-75
2022/10/14 09:14:13;;;;;;;85.50;24.67;;;;;17.50;96409.00;;;;8391384;28;20212;-74
2022/10/14 09:18:44;;;;;;;68.30;23.90;;;;;17.70;96404.00;;;;8393036;28;20219;-77
2022/10/14 09:23:22;;;;;;;62.05;22.23;;;;;17.90;96399.00;;;;8392498;28;20265;-76
2022/10/14 09:27:56;;;;;;;51.38;20.08;;;;;18.10;96406.00;;;;8391790;28;20223;-77
2022/10/14 09:32:06;;;;;;;50.42;20.25;;;;;18.30;96398.00;;;;8392031;28;20561;-75
2022/10/14 09:36:37;;;;;;;48.92;21.15;;;;;18.60;96402.00;;;;8391589;28;20224;-78
2022/10/14 09:41:15;;;;;;;44.92;18.60;;;;;18.80;96401.00;;;;8391105;28;20227;-78
2022/10/14 09:45:54;;;;;;;47.58;20.67;;;;;19.00;96406.00;;;;8392643;28;20224;-78
2022/10/14 09:50:31;;;;;;;45.65;20.27;;;;;18.90;96391.00;;;;8390811;28;20212;-78
2022/10/14 10:00:08;;;;;;;38.33;19.15;;;;;19.10;96407.00;;;;8397751;28;20212;-80
2022/10/14 10:04:46;;;;;;;34.80;19.90;;;;;19.20;96407.00;;;;8397713;28;20712;-81
2022/10/14 10:09:19;;;;;;;35.70;19.98;;;;;19.20;96402.00;;;;8397408;28;20618;-80
2022/10/14 10:13:57;;;;;;;42.60;26.75;;;;;19.50;96395.00;;;;8396680;28;20298;-77
2022/10/14 10:18:34;;;;;;;34.83;18.42;;;;;19.80;96387.00;;;;8397221;28;20561;-76
2022/10/14 10:23:14;;;;;;;26.25;15.35;;;;;19.90;96389.00;;;;8398403;28;20215;-78
2022/10/14 10:27:26;;;;;;;35.70;20.85;;;;;20.10;96390.00;;;;8398086;28;20720;-79
2022/10/14 10:32:07;;;;;;;28.13;17.25;;;;;20.20;96382.00;;;;8394641;28;20216;-77
2022/10/14 10:36:39;;;;;;;23.27;15.02;;;;;20.10;96389.00;;;;8397700;28;20223;-77
2022/10/14 10:40:53;;;;;;;27.42;15.02;;;;;20.10;96390.00;;;;8397578;28;20553;-80
2022/10/14 10:45:30;;;;;;;30.20;15.98;;;;;20.00;96375.00;;;;8396924;28;20277;-81
2022/10/14 10:50:20;;;;;;;24.85;15.73;;;;;20.00;96365.00;;;;8397364;28;20216;-81
2022/10/14 10:59:57;;;;;;;24.02;14.50;;;;;20.00;96359.00;;;;8397524;28;20326;-81
2022/10/14 11:04:41;;;;;;;22.50;13.50;;;;;19.70;96350.00;;;;8396418;28;20216;-83
2022/10/14 11:13:50;;;;;;;18.65;13.13;;;;;19.70;96328.00;;;;8396002;28;20223;-82
2022/10/14 11:18:22;;;;;;;19.90;12.32;;;;;19.70;96325.00;;;;8384794;28;20248;-82
2022/10/14 11:23:03;;;;;;;19.15;13.48;;;;;19.50;96310.00;;;;8395394;28;20310;-80
2022/10/14 11:27:33;;;;;;;17.75;12.43;;;;;19.40;96304.00;;;;8395999;28;20228;-73
2022/10/14 11:32:10;;;;;;;17.67;11.50;;;;;19.40;96300.00;;;;8396133;28;20250;-75
2022/10/14 11:36:52;;;;;;;19.70;11.15;;;;;19.50;96295.00;;;;8395697;28;20619;-83
2022/10/14 11:41:13;;;;;;;12.23;9.60;;;;;19.40;96283.00;;;;8392866;28;20285;-83
2022/10/14 11:45:50;;;;;;;12.50;9.35;;;;;19.80;96275.00;;;;8382061;28;20226;-81
2022/10/14 11:50:25;;;;;;;11.80;7.75;;;;;20.00;96273.00;;;;8395353;28;20306;-81
2022/10/14 12:00:03;;;;;;;11.57;7.47;;;;;20.10;96267.00;;;;8395459;28;20561;-80
2022/10/14 12:04:43;;;;;;;14.55;8.23;;;;;20.40;96258.00;;;;8393722;28;20215;-81
2022/10/14 12:09:17;;;;;;;14.00;7.10;;;;;20.30;96254.00;;;;8394981;28;20266;-83
2022/10/14 12:13:57;;;;;;;11.55;7.45;;;;;20.30;96245.00;;;;8394456;28;20224;-84
2022/10/14 12:18:01;;;;;;;11.30;6.35;;;;;20.30;96249.00;;;;8393668;28;20755;-84
2022/10/14 12:22:13;;;;;;;9.35;7.13;;;;;20.30;96250.00;;;;8393196;28;20211;-82
2022/10/14 12:26:39;;;;;;;8.63;6.85;;;;;20.30;96246.00;;;;8395269;28;20652;-83
2022/10/14 12:31:15;;;;;;;17.33;6.68;;;;;20.20;96238.00;;;;8393613;28;20313;-82
2022/10/14 12:35:47;;;;;;;12.90;6.32;;;;;20.30;96240.00;;;;8394072;28;20227;-82
2022/10/14 12:40:15;;;;;;;9.40;6.57;;;;;20.40;96238.00;;;;8393958;28;20212;-83
2022/10/14 12:44:36;;;;;;;11.00;6.20;;;;;20.20;96233.00;;;;8393694;28;20542;-84
2022/10/14 12:48:49;;;;;;;12.27;5.72;;;;;20.20;96223.00;;;;8394653;28;20219;-82
2022/10/14 12:53:22;;;;;;;8.52;5.90;;;;;20.10;96235.00;;;;8392864;28;20265;-81
2022/10/14 12:57:31;;;;;;;6.90;5.50;;;;;20.20;96229.00;;;;8369211;28;20735;-80
2022/10/14 13:01:43;;;;;;;8.80;5.30;;;;;20.40;96222.00;;;;8393656;28;20220;-80
2022/10/14 13:05:47;;;;;;;5.95;5.10;;;;;20.60;96223.00;;;;8384820;28;20223;-80
2022/10/14 13:09:57;;;;;;;9.35;5.85;;;;;20.60;96214.00;;;;8392537;28;20236;-80
2022/10/14 13:14:28;;;;;;;9.45;4.78;;;;;20.50;96207.00;;;;8391376;28;20246;-82
2022/10/14 13:19:00;;;;;;;7.07;5.03;;;;;20.60;96223.00;;;;8393008;28;20228;-81
2022/10/14 13:23:36;;;;;;;10.35;5.07;;;;;20.60;96215.00;;;;8390076;28;20211;-81
2022/10/14 13:28:10;;;;;;;7.25;4.68;;;;;20.50;96210.00;;;;8396559;28;20212;-84
2022/10/14 13:32:50;;;;;;;9.23;4.68;;;;;20.60;96193.00;;;;8397637;28;20223;-80
2022/10/14 13:37:29;;;;;;;7.95;4.85;;;;;20.60;96193.00;;;;8398061;28;20216;-78
2022/10/14 13:41:59;;;;;;;10.98;5.55;;;;;20.60;96186.00;;;;8399899;28;20228;-81
2022/10/14 13:46:39;;;;;;;9.55;4.65;;;;;20.70;96184.00;;;;8398210;28;20254;-81
2022/10/14 13:51:22;;;;;;;5.45;4.32;;;;;20.60;96183.00;;;;8398126;28;20212;-80
2022/10/14 13:55:44;;;;;;;6.63;4.28;;;;;20.50;96176.00;;;;8398763;28;20553;-81
2022/10/14 13:59:53;;;;;;;10.43;4.63;;;;;20.50;96175.00;;;;8397969;28;20216;-81
2022/10/14 14:04:51;;;;;;;7.43;4.90;;;;;20.40;96167.00;;;;8397384;28;20238;-81
2022/10/14 14:09:28;;;;;;;5.97;4.30;;;;;20.50;96158.00;;;;8398873;28;20220;-81
2022/10/14 14:14:07;;;;;;;15.45;5.20;;;;;20.50;96162.00;;;;8397646;28;20560;-81
2022/10/14 14:18:46;;;;;;;8.45;4.72;;;;;20.40;96153.00;;;;8397983;28;20236;-81
2022/10/14 14:23:46;;;;;;;9.70;4.90;;;;;20.30;96159.00;;;;8397635;28;20223;-81
2022/10/14 14:28:27;;;;;;;9.98;4.80;;;;;20.20;96158.00;;;;8397510;28;20273;-81
2022/10/14 14:33:01;;;;;;;6.15;4.03;;;;;20.00;96160.00;;;;8382233;28;20223;-81
2022/10/14 14:37:05;;;;;;;6.03;3.85;;;;;19.90;96161.00;;;;8397211;28;20242;-83
2022/10/14 14:42:15;;;;;;;7.00;4.00;;;;;19.80;96157.00;;;;8397519;28;20216;-80
2022/10/14 14:46:56;;;;;;;8.82;5.18;;;;;19.70;96154.00;;;;8395097;28;20243;-82
2022/10/14 14:51:00;;;;;;;5.78;3.90;;;;;19.60;96146.00;;;;8397700;28;20208;-80
2022/10/14 14:55:39;;;;;;;9.15;4.05;;;;;19.50;96142.00;;;;8379910;28;20220;-79
2022/10/14 15:05:19;;;;;;;7.40;4.07;;;;;19.40;96136.00;;;;8394573;28;20629;-84
2022/10/14 15:09:29;;;;;;;11.27;4.22;;;;;19.30;96131.00;;;;8395914;28;20223;-82
2022/10/14 15:13:59;;;;;;;9.60;4.28;;;;;19.20;96127.00;;;;8393621;28;20223;-79
2022/10/14 15:18:39;;;;;;;4.80;3.80;;;;;19.20;96117.00;;;;8394345;28;20228;-79
2022/10/14 15:23:20;;;;;;;11.25;4.15;;;;;19.10;96119.00;;;;8395710;28;20265;-79
2022/10/14 15:27:59;;;;;;;13.30;7.07;;;;;19.00;96104.00;;;;8395886;28;20231;-79
2022/10/14 15:32:33;;;;;;;7.68;6.22;;;;;18.90;96102.00;;;;8393991;28;20248;-81
2022/10/14 15:37:12;;;;;;;7.55;4.28;;;;;18.70;96095.00;;;;8394586;28;20313;-83
2022/10/14 15:41:16;;;;;;;7.40;5.22;;;;;18.70;96092.00;;;;8394196;28;20260;-81
2022/10/14 15:45:21;;;;;;;12.05;3.88;;;;;18.60;96089.00;;;;8388998;28;20211;-82
2022/10/14 15:49:28;;;;;;;6.32;4.53;;;;;18.50;96088.00;;;;8390872;28;20223;-80
2022/10/14 15:54:02;;;;;;;6.82;4.65;;;;;18.40;96085.00;;;;8394909;28;20542;-82
2022/10/14 15:58:05;;;;;;;9.68;4.15;;;;;18.40;96084.00;;;;8393788;28;20315;-82
2022/10/14 16:02:16;;;;;;;11.07;4.60;;;;;18.30;96086.00;;;;8394168;28;20223;-82
2022/10/14 16:06:21;;;;;;;8.93;4.10;;;;;18.30;96082.00;;;;8393691;28;20569;-80
2022/10/14 16:10:56;;;;;;;6.25;3.42;;;;;18.20;96076.00;;;;8393666;28;20227;-85
2022/10/14 16:15:43;;;;;;;7.40;4.60;;;;;18.20;96081.00;;;;8387165;27;20928;-87
2022/10/14 16:25:21;;;;;;;12.80;4.80;;;;;18.10;96084.00;;;;8354976;28;20220;-77
2022/10/14 16:29:54;;;;;;;11.68;7.45;;;;;18.00;96084.00;;;;8356170;28;20543;-77
2022/10/14 16:34:33;;;;;;;28.92;17.65;;;;;17.90;96080.00;;;;8355198;28;20227;-78
2022/10/14 16:39:06;;;;;;;9.38;5.32;;;;;17.80;96077.00;;;;8354777;28;20224;-78
2022/10/14 16:43:44;;;;;;;11.10;4.82;;;;;17.70;96078.00;;;;8354911;28;20690;-78
2022/10/14 16:48:18;;;;;;;11.63;4.68;;;;;17.60;96078.00;;;;8348131;28;20217;-76
2022/10/14 16:57:32;;;;;;;12.63;10.07;;;;;17.50;96088.00;;;;8352999;28;20217;-75
2022/10/14 17:02:09;;;;;;;13.38;9.93;;;;;17.40;96090.00;;;;8352410;28;20221;-74
2022/10/14 17:06:12;;;;;;;22.17;11.15;;;;;17.40;96090.00;;;;8352960;28;20240;-79
2022/10/14 17:10:48;;;;;;;5.18;4.68;;;;;17.40;96092.00;;;;8353971;28;20527;-75
2022/10/14 17:15:22;;;;;;;4.75;3.53;;;;;17.30;96095.00;;;;8353808;28;20221;-77
2022/10/14 17:19:59;;;;;;;6.75;5.22;;;;;17.30;96092.00;;;;8353090;28;20601;-76
2022/10/14 17:24:35;;;;;;;5.20;4.70;;;;;17.20;96097.00;;;;8345575;28;20224;-79
2022/10/14 17:29:14;;;;;;;4.68;4.28;;;;;17.20;96103.00;;;;8332043;28;20236;-78
2022/10/14 17:33:49;;;;;;;6.43;3.70;;;;;17.20;96096.00;;;;8329651;28;20252;-74
2022/10/14 17:38:22;;;;;;;5.07;3.70;;;;;17.20;96106.00;;;;8330829;28;20296;-74
2022/10/14 17:43:00;;;;;;;6.95;5.45;;;;;17.10;96101.00;;;;8331072;28;20567;-75
2022/10/14 17:47:38;;;;;;;3.80;3.28;;;;;17.10;96097.00;;;;8330922;28;20228;-75
2022/10/14 17:52:12;;;;;;;2.97;2.72;;;;;17.10;96094.00;;;;8328880;28;20247;-75
2022/10/14 17:56:49;;;;;;;6.70;3.17;;;;;17.00;96082.00;;;;8329592;28;20224;-77
2022/10/14 18:01:26;;;;;;;487.27;299.88;;;;;16.90;96084.00;;;;8331009;28;20283;-79
2022/10/14 18:06:10;;;;;;;365.15;288.92;;;;;16.90;96083.00;;;;8363832;28;20217;-75
2022/10/14 18:10:38;;;;;;;20.83;16.23;;;;;16.80;96090.00;;;;8331786;28;20243;-75
2022/10/14 18:15:14;;;;;;;46.08;37.65;;;;;16.70;96076.00;;;;8362897;28;20290;-75
2022/10/14 18:19:51;;;;;;;6.15;4.32;;;;;16.80;96082.00;;;;8330514;28;20225;-75
2022/10/14 18:24:30;;;;;;;4.97;2.97;;;;;16.70;96078.00;;;;8330266;28;20222;-75
2022/10/14 18:29:04;;;;;;;3.90;3.45;;;;;16.70;96074.00;;;;8329292;28;20589;-75
2022/10/14 18:33:12;;;;;;;7.90;5.70;;;;;16.70;96075.00;;;;8329897;28;20263;-75
2022/10/14 18:37:42;;;;;;;9.82;5.05;;;;;16.70;96072.00;;;;8329064;28;20221;-75
2022/10/14 18:42:20;;;;;;;8.10;3.97;;;;;16.60;96076.00;;;;8328781;28;20217;-75
2022/10/14 18:46:55;;;;;;;4.68;3.00;;;;;16.60;96067.00;;;;8328899;28;20229;-76
2022/10/14 18:51:33;;;;;;;7.85;6.50;;;;;16.60;96078.00;;;;8329678;28;20221;-75
2022/10/14 18:56:09;;;;;;;4.93;3.97;;;;;16.50;96066.00;;;;8328868;28;20217;-76
2022/10/14 19:00:46;;;;;;;3.45;3.15;;;;;16.30;96068.00;;;;8329445;28;20217;-75
2022/10/14 19:05:19;;;;;;;5.30;3.53;;;;;16.20;96073.00;;;;8328566;28;20221;-77
2022/10/14 19:09:27;;;;;;;4.10;3.10;;;;;16.10;96075.00;;;;8328888;28;20221;-77
2022/10/14 19:13:31;;;;;;;7.95;3.28;;;;;15.90;96068.00;;;;8327439;28;20308;-77
2022/10/14 19:18:05;;;;;;;7.00;4.05;;;;;15.70;96062.00;;;;8326712;28;20233;-78
2022/10/14 19:22:44;;;;;;;6.30;3.78;;;;;15.50;96057.00;;;;8325959;28;20220;-77
2022/10/14 19:27:21;;;;;;;9.20;4.20;;;;;15.40;96056.00;;;;8327473;28;20708;-78
2022/10/14 19:31:27;;;;;;;7.40;4.07;;;;;15.50;96052.00;;;;8328719;28;20601;-81
2022/10/14 19:36:01;;;;;;;5.70;4.05;;;;;15.40;96050.00;;;;8327446;28;20264;-81
2022/10/14 19:40:40;;;;;;;8.13;3.90;;;;;15.40;96049.00;;;;8329063;28;20221;-84
2022/10/14 19:45:14;;;;;;;4.22;3.67;;;;;15.30;96053.00;;;;8327540;28;20224;-84
2022/10/14 19:49:51;;;;;;;6.75;3.67;;;;;15.30;96049.00;;;;8327052;28;20225;-85
2022/10/14 19:54:28;;;;;;;7.45;3.75;;;;;15.20;96050.00;;;;8321887;28;20225;-85
2022/10/14 19:59:06;;;;;;;8.70;3.85;;;;;15.20;96049.00;;;;8324269;28;20221;-85
2022/10/14 20:03:39;;;;;;;6.78;3.85;;;;;15.20;96039.00;;;;8326858;28;20252;-85
2022/10/14 20:08:16;;;;;;;6.70;3.90;;;;;15.20;96029.00;;;;8326773;28;20225;-85
2022/10/14 20:12:19;;;;;;;8.55;4.30;;;;;15.30;96036.00;;;;8327174;28;20221;-88
2022/10/14 20:16:56;;;;;;;9.23;4.13;;;;;15.30;96032.00;;;;8327345;28;20247;-87
2022/10/14 20:21:35;;;;;;;9.75;3.67;;;;;15.20;96023.00;;;;8332630;28;20243;-86
2022/10/14 20:26:11;;;;;;;8.65;4.35;;;;;15.20;96015.00;;;;8328136;28;20623;-88
2022/10/14 20:30:14;;;;;;;6.95;4.13;;;;;15.10;96019.00;;;;8326753;28;20226;-87
2022/10/14 20:34:17;;;;;;;11.57;4.82;;;;;15.10;96008.00;;;;8327636;28;20227;-87
2022/10/14 20:38:55;;;;;;;8.07;4.75;;;;;15.10;96005.00;;;;8327276;28;20229;-88
2022/10/14 20:43:29;;;;;;;11.95;5.07;;;;;15.10;96001.00;;;;8327212;28;20221;-87
2022/10/14 20:48:06;;;;;;;10.93;4.88;;;;;15.10;96004.00;;;;8325258;28;20228;-82
2022/10/14 20:52:43;;;;;;;10.80;4.43;;;;;15.10;95993.00;;;;8327710;28;20559;-85
2022/10/14 20:56:49;;;;;;;10.60;4.88;;;;;15.10;95982.00;;;;8326056;28;20275;-85
2022/10/14 21:01:23;;;;;;;9.63;5.35;;;;;15.10;95978.00;;;;8330561;28;20222;-86
2022/10/14 21:06:04;;;;;;;12.05;6.07;;;;;15.10;95975.00;;;;8333579;28;20659;-86
2022/10/14 21:10:08;;;;;;;12.02;5.97;;;;;15.10;95964.00;;;;8332244;28;20221;-86
2022/10/14 21:14:16;;;;;;;14.13;4.97;;;;;15.10;95959.00;;;;8332344;28;20298;-85
2022/10/14 21:18:48;;;;;;;6.13;4.70;;;;;15.00;95948.00;;;;8332719;28;20213;-85
2022/10/14 21:22:58;;;;;;;9.45;5.30;;;;;15.00;95959.00;;;;8330572;28;20651;-83
2022/10/14 21:27:01;;;;;;;6.45;4.68;;;;;15.00;95952.00;;;;8332036;28;20232;-84
2022/10/14 21:31:43;;;;;;;8.73;4.97;;;;;15.00;95941.00;;;;8329395;28;20279;-83
2022/10/14 21:36:19;;;;;;;10.50;5.10;;;;;15.00;95945.00;;;;8328148;28;20229;-86
2022/10/14 21:40:22;;;;;;;11.23;5.55;;;;;15.00;95945.00;;;;8331296;28;20320;-84
2022/10/14 21:44:59;;;;;;;10.60;5.22;;;;;15.00;95943.00;;;;8327111;28;20225;-84
2022/10/14 21:49:02;;;;;;;9.43;5.38;;;;;15.00;95939.00;;;;8330473;28;20224;-83
2022/10/14 21:53:41;;;;;;;7.53;4.90;;;;;15.00;95935.00;;;;8332038;28;20275;-85
2022/10/14 21:58:14;;;;;;;7.68;5.38;;;;;15.10;95935.00;;;;8330787;28;20221;-82
2022/10/14 22:02:18;;;;;;;6.65;4.80;;;;;15.10;95925.00;;;;8331567;28;20213;-81
2022/10/14 22:06:52;;;;;;;9.23;5.30;;;;;15.10;95925.00;;;;8331095;28;20536;-83
2022/10/14 22:11:31;;;;;;;7.15;5.13;;;;;15.10;95926.00;;;;8327307;28;20593;-82
2022/10/14 22:15:34;;;;;;;9.52;5.43;;;;;15.10;95920.00;;;;8330443;28;20295;-82
2022/10/14 22:19:37;;;;;;;8.18;4.85;;;;;15.00;95916.00;;;;8329193;28;20554;-79
2022/10/14 22:24:12;;;;;;;6.47;5.10;;;;;15.00;95914.00;;;;8329086;28;20217;-78
2022/10/14 22:28:16;;;;;;;6.88;4.30;;;;;15.00;95900.00;;;;8329436;28;20228;-78
2022/10/14 22:32:50;;;;;;;9.95;4.82;;;;;15.00;95903.00;;;;8321851;28;20252;-77
2022/10/14 22:36:53;;;;;;;5.85;4.68;;;;;15.00;95895.00;;;;8328948;28;22144;-76
2022/10/14 22:41:00;;;;;;;8.75;4.90;;;;;15.00;95883.00;;;;8329557;28;20301;-77
2022/10/14 22:45:36;;;;;;;11.50;5.47;;;;;15.00;95879.00;;;;8329699;28;20240;-76
2022/10/14 22:49:39;;;;;;;9.13;4.75;;;;;15.00;95870.00;;;;8328747;28;20228;-76